Time;durP1;ratioP1;P1;durP2;ratioP2;P2;SDS_P1;SDS_P2;PMS_P1;PMS_P2;Temp;Humidity;BMP_temperature;BMP_pressure;BME280_temperature;BME280_humidity;BME280_pressure;Samples;Min_cycle;Max_cycle;Signal;HPM_P1;HPM_P2
2023/01/04 00:01:14;;;;;;;0.77;0.77;;;;;;;6.10;97.21;101093.81;5073826;28;20265;-74
2023/01/04 00:03:40;;;;;;;1.20;0.77;;;;;;;6.11;96.81;101092.72;5072011;28;20191;-73
2023/01/04 00:06:08;;;;;;;0.40;0.40;;;;;;;6.07;96.97;101099.72;5073476;28;20513;-73
2023/01/04 00:08:34;;;;;;;9.03;1.70;;;;;;;6.02;97.25;101097.00;5073486;28;20178;-73
2023/01/04 00:11:01;;;;;;;2.07;1.10;;;;;;;6.07;96.98;101099.72;5073556;28;20174;-73
2023/01/04 00:13:26;;;;;;;0.07;0.07;;;;;;;5.96;97.25;101083.44;5073479;28;20182;-74
2023/01/04 00:15:52;;;;;;;3.03;1.17;;;;;;;6.03;97.26;101083.19;5073575;28;20576;-74
2023/01/04 00:18:17;;;;;;;1.57;0.87;;;;;;;6.08;96.88;101083.22;5073443;28;20175;-74
2023/01/04 00:20:42;;;;;;;0.00;0.00;;;;;;;6.04;96.58;101081.28;5073811;28;20249;-74
2023/01/04 00:23:08;;;;;;;1.40;1.30;;;;;;;6.03;96.74;101066.91;5073117;28;20181;-73
2023/01/04 00:25:33;;;;;;;3.27;0.47;;;;;;;5.96;96.89;101055.50;5071829;28;20216;-73
2023/01/04 00:27:58;;;;;;;0.20;0.20;;;;;;;5.96;96.78;101055.50;5073266;28;20182;-73
2023/01/04 00:30:23;;;;;;;0.77;0.77;;;;;;;5.95;97.03;101057.41;5073138;28;20258;-74
2023/01/04 00:32:49;;;;;;;0.70;0.30;;;;;;;5.92;97.14;101054.38;5073100;28;20181;-73
2023/01/04 00:35:14;;;;;;;3.07;1.10;;;;;;;5.94;97.20;101052.25;5073093;28;20627;-74
2023/01/04 00:37:39;;;;;;;0.30;0.23;;;;;;;5.86;97.27;101042.69;5072931;28;20653;-74
2023/01/04 00:40:05;;;;;;;1.17;1.17;;;;;;;5.88;97.27;101048.66;5071504;28;20179;-74
2023/01/04 00:42:30;;;;;;;7.30;0.70;;;;;;;5.84;97.50;101025.88;5072875;28;20183;-74
2023/01/04 00:44:56;;;;;;;0.67;0.67;;;;;;;5.84;97.63;101044.84;5072725;28;20538;-74
2023/01/04 00:47:21;;;;;;;0.00;0.00;;;;;;;5.86;97.80;101034.53;5072815;28;20185;-74
2023/01/04 00:49:46;;;;;;;0.13;0.13;;;;;;;5.83;98.21;101018.81;5071517;28;20596;-75
2023/01/04 00:52:12;;;;;;;2.57;1.43;;;;;;;5.87;97.78;101025.31;5072738;28;20178;-74
2023/01/04 00:54:37;;;;;;;0.10;0.10;;;;;;;5.82;97.83;101014.47;5072654;28;20182;-74
2023/01/04 00:57:04;;;;;;;1.37;1.30;;;;;;;5.82;97.94;101009.06;5072645;28;20257;-74
2023/01/04 00:59:29;;;;;;;1.63;1.53;;;;;;;5.81;98.01;101003.91;5072710;28;20174;-73
2023/01/04 01:01:55;;;;;;;0.07;0.07;;;;;;;5.83;98.19;101002.53;5072540;28;20516;-73
2023/01/04 01:04:22;;;;;;;1.60;0.97;;;;;;;5.83;97.83;101002.53;5072234;28;20217;-74
2023/01/04 01:06:48;;;;;;;2.67;1.47;;;;;;;5.83;98.07;100999.03;5072836;28;20193;-73
2023/01/04 01:09:14;;;;;;;0.50;0.50;;;;;;;5.79;98.01;100997.94;5072306;28;20182;-73
2023/01/04 01:11:40;;;;;;;0.63;0.63;;;;;;;5.75;98.26;100975.94;5072402;28;20706;-73
2023/01/04 01:14:06;;;;;;;0.80;0.80;;;;;;;5.76;98.24;100976.75;5072203;28;20582;-74
2023/01/04 01:16:32;;;;;;;1.13;1.03;;;;;;;5.74;98.44;100968.06;5072164;28;20550;-75
2023/01/04 01:18:57;;;;;;;1.00;1.00;;;;;;;5.70;98.76;100965.09;5072222;28;20186;-74
2023/01/04 01:21:25;;;;;;;2.23;1.60;;;;;;;5.72;98.82;100956.69;5072310;28;20182;-73
2023/01/04 01:23:53;;;;;;;2.70;1.30;;;;;;;5.69;98.83;100952.63;5071812;28;20210;-73
2023/01/04 01:26:20;;;;;;;1.90;0.93;;;;;;;5.70;98.89;100948.81;5072160;28;20179;-74
2023/01/04 01:28:47;;;;;;;2.37;1.40;;;;;;;5.70;98.89;100956.13;5071998;28;20182;-73
2023/01/04 01:31:16;;;;;;;0.43;0.43;;;;;;;5.72;98.73;100954.78;5071970;28;20167;-74
2023/01/04 01:33:43;;;;;;;0.87;0.87;;;;;;;5.70;98.82;100954.25;5071732;28;20190;-73
2023/01/04 01:36:09;;;;;;;4.70;2.33;;;;;;;5.75;98.47;100961.56;5071943;28;20231;-73
2023/01/04 01:38:36;;;;;;;0.87;0.73;;;;;;;5.80;98.00;100964.31;5071800;28;20197;-73
2023/01/04 01:41:03;;;;;;;12.47;0.50;;;;;;;5.82;97.83;100951.28;5071655;28;20175;-74
2023/01/04 01:43:49;;;;;;;0.00;0.00;;;;;;;5.76;97.75;100950.44;5070099;28;20219;-73
2023/01/04 01:46:20;;;;;;;0.37;0.37;;;;;;;5.79;97.73;100941.81;5071666;28;20179;-74
2023/01/04 01:48:45;;;;;;;1.00;0.80;;;;;;;5.83;97.23;100937.47;5071677;28;20167;-73
2023/01/04 01:51:13;;;;;;;0.53;0.50;;;;;;;5.88;96.97;100944.78;5071721;28;20370;-74
2023/01/04 01:53:42;;;;;;;0.00;0.00;;;;;;;5.86;96.48;100925.28;5071331;28;20219;-74
2023/01/04 01:56:08;;;;;;;5.00;0.63;;;;;;;5.91;96.18;100923.41;5071570;28;20178;-73
2023/01/04 01:58:38;;;;;;;0.30;0.30;;;;;;;5.98;96.01;100923.16;5071600;28;20174;-73
2023/01/04 02:01:04;;;;;;;0.00;0.00;;;;;;;6.02;95.34;100924.25;5071247;28;20271;-73
2023/01/04 02:03:35;;;;;;;0.10;0.10;;;;;;;6.09;94.96;100915.84;5071074;28;20915;-73
2023/01/04 02:06:02;;;;;;;1.27;1.17;;;;;;;6.14;94.48;100894.97;5071320;28;20182;-73
2023/01/04 02:08:29;;;;;;;0.00;0.00;;;;;;;6.12;94.21;100891.72;5071316;28;20178;-74
2023/01/04 02:10:54;;;;;;;5.33;1.10;;;;;;;6.09;94.22;100894.16;5071257;28;20255;-74
2023/01/04 02:14:25;;;;;;;0.00;0.00;;;;;;;6.18;93.85;100881.66;5071178;28;20229;-74
2023/01/04 02:16:36;;;;;;;2.00;1.13;;;;;;;6.05;93.85;100877.59;5070940;28;20190;-74
2023/01/04 02:19:16;;;;;;;0.00;0.00;;;;;;;6.00;94.30;100868.66;5071131;28;20196;-73
2023/01/04 02:21:56;;;;;;;0.73;0.73;;;;;;;6.05;94.60;100855.06;5071105;28;20181;-73
2023/01/04 02:24:35;;;;;;;0.00;0.00;;;;;;;6.11;93.98;100854.00;5070861;28;20198;-73
2023/01/04 02:27:50;;;;;;;0.00;0.00;;;;;;;5.97;94.84;100835.56;5069652;28;20589;-74
2023/01/04 02:30:57;;;;;;;0.00;0.00;;;;;;;6.10;94.51;100822.53;5055785;28;20569;-74
2023/01/04 02:33:37;;;;;;;0.00;0.00;;;;;;;6.14;94.52;100816.28;5029731;28;20202;-73
2023/01/04 02:36:18;;;;;;;0.00;0.00;;;;;;;6.19;94.50;100791.88;5071146;28;20182;-74
2023/01/04 02:38:56;;;;;;;0.10;0.10;;;;;;;6.28;94.27;100781.28;5071003;28;20200;-74
2023/01/04 02:41:50;;;;;;;0.77;0.77;;;;;;;6.38;93.29;100783.97;5070667;28;20596;-73
2023/01/04 02:50:29;;;;;;;1.80;1.43;;;;;;;6.50;92.09;100767.38;5071221;28;20536;-74
2023/01/04 02:50:36;;;;;;;1.90;0.57;;;;;;;6.52;91.91;100766.03;5070780;28;20178;-74
2023/01/04 02:53:08;;;;;;;1.87;1.10;;;;;;;6.52;92.07;100774.19;5063024;28;20562;-73
2023/01/04 02:55:47;;;;;;;0.63;0.57;;;;;;;6.57;91.55;100760.56;5071087;28;20545;-73
2023/01/04 02:58:21;;;;;;;1.37;1.07;;;;;;;6.57;91.18;100747.00;5070653;28;20535;-74
2023/01/04 03:06:53;;;;;;;0.00;0.00;;;;;;;6.63;91.37;100749.69;5070723;28;20169;-74
2023/01/04 03:09:25;;;;;;;0.00;0.00;;;;;;;6.63;90.82;100734.22;5070711;28;20178;-73
2023/01/04 03:14:49;;;;;;;0.40;0.30;;;;;;;6.65;90.50;100729.31;5073517;28;20174;-73
2023/01/04 03:17:20;;;;;;;1.20;0.63;;;;;;;6.68;90.11;100715.19;5074808;28;20191;-73
2023/01/04 03:19:50;;;;;;;0.60;0.33;;;;;;;6.71;90.58;100713.81;5075558;28;20209;-73
2023/01/04 03:36:27;;;;;;;0.10;0.10;;;;;;;6.82;90.06;100664.63;5074210;28;20324;-73
2023/01/04 03:51:13;;;;;;;0.40;0.40;;;;;;;7.04;90.81;100630.78;5073922;28;20181;-74
2023/01/04 03:54:05;;;;;;;0.00;0.00;;;;;;;7.05;91.14;100633.22;5065518;28;20186;-74
2023/01/04 03:56:35;;;;;;;0.53;0.40;;;;;;;7.10;91.61;100627.75;5065041;28;20247;-73
2023/01/04 03:59:00;;;;;;;0.00;0.00;;;;;;;7.07;93.07;100622.06;5074116;28;20653;-74
2023/01/04 04:01:27;;;;;;;1.50;0.63;;;;;;;7.16;93.19;100623.91;5073727;28;20174;-74
2023/01/04 04:09:20;;;;;;;2.80;0.80;;;;;;;7.20;95.28;100585.28;5073644;28;20174;-73
2023/01/04 04:11:46;;;;;;;0.67;0.63;;;;;;;7.20;95.55;100585.28;5073439;28;20170;-73
2023/01/04 04:14:11;;;;;;;5.97;0.37;;;;;;;7.16;95.59;100580.44;5073340;28;20182;-73
2023/01/04 04:16:37;;;;;;;0.17;0.17;;;;;;;7.16;96.68;100574.19;5073424;28;20262;-73
2023/01/04 04:19:02;;;;;;;0.70;0.50;;;;;;;7.17;96.65;100581.25;5073325;28;20208;-76
2023/01/04 04:21:28;;;;;;;1.13;1.00;;;;;;;7.18;97.12;100579.34;5073399;28;20316;-73
2023/01/04 04:23:54;;;;;;;0.00;0.00;;;;;;;7.14;98.16;100565.50;5073107;28;20699;-73
2023/01/04 04:26:20;;;;;;;0.90;0.90;;;;;;;7.13;98.46;100566.63;5072695;28;20174;-74
2023/01/04 04:28:46;;;;;;;0.83;0.83;;;;;;;7.10;99.84;100554.41;5073330;28;20177;-73
2023/01/04 04:31:11;;;;;;;0.07;0.07;;;;;;;7.12;99.80;100562.28;5073226;28;20622;-74
2023/01/04 04:33:37;;;;;;;3.67;1.33;;;;;;;7.12;99.59;100562.28;5072971;28;20170;-73
2023/01/04 04:36:03;;;;;;;0.73;0.73;;;;;;;7.07;100.00;100560.41;5073670;28;20170;-74
2023/01/04 04:38:28;;;;;;;0.13;0.13;;;;;;;7.07;100.00;100552.25;5073037;28;20656;-74
2023/01/04 04:43:37;;;;;;;0.13;0.13;;;;;;;7.02;100.00;100544.16;5072746;28;20169;-74
2023/01/04 04:46:03;;;;;;;0.00;0.00;;;;;;;7.02;100.00;100532.47;5072995;28;20174;-73
2023/01/04 04:48:28;;;;;;;5.30;1.27;;;;;;;7.05;100.00;100518.31;5073221;28;20174;-74
2023/01/04 04:50:53;;;;;;;1.07;0.93;;;;;;;6.97;100.00;100508.91;5073111;28;20205;-74
2023/01/04 04:53:18;;;;;;;0.80;0.80;;;;;;;7.00;100.00;100516.47;5072598;28;20174;-73
2023/01/04 04:55:44;;;;;;;0.07;0.07;;;;;;;6.97;100.00;100502.66;5072751;28;20277;-73
2023/01/04 04:58:09;;;;;;;2.97;1.20;;;;;;;7.03;100.00;100498.78;5072617;28;20196;-73
2023/01/04 05:00:34;;;;;;;0.20;0.20;;;;;;;7.06;100.00;100498.19;5072719;28;20216;-74
2023/01/04 05:03:00;;;;;;;1.00;1.00;;;;;;;7.01;100.00;100493.63;5072324;28;20660;-73
2023/01/04 05:05:27;;;;;;;0.00;0.00;;;;;;;6.98;100.00;100501.56;5072481;28;20214;-74
2023/01/04 05:07:53;;;;;;;1.67;0.97;;;;;;;6.95;100.00;100492.09;5072478;28;20171;-74
2023/01/04 05:10:18;;;;;;;0.87;0.87;;;;;;;7.11;100.00;100501.69;5071073;28;20595;-73
2023/01/04 05:12:58;;;;;;;2.63;0.77;;;;;;;7.06;100.00;100477.28;5072198;28;20224;-73
2023/01/04 05:15:26;;;;;;;0.00;0.00;;;;;;;6.99;100.00;100476.00;5072555;28;20221;-73
2023/01/04 05:17:51;;;;;;;0.60;0.57;;;;;;;7.08;100.00;100472.38;5072288;28;20580;-73
2023/01/04 05:20:17;;;;;;;0.03;0.03;;;;;;;7.10;100.00;100464.75;5072239;28;20179;-73
2023/01/04 05:22:42;;;;;;;0.90;0.47;;;;;;;7.18;100.00;100459.78;5072062;28;20175;-74
2023/01/04 05:25:08;;;;;;;0.20;0.20;;;;;;;7.13;100.00;100445.16;5072104;28;20745;-73
2023/01/04 05:27:34;;;;;;;0.00;0.00;;;;;;;7.13;100.00;100444.34;5072177;28;20174;-73
2023/01/04 05:32:43;;;;;;;1.30;1.30;;;;;;;7.20;100.00;100433.13;5071962;28;20166;-73
2023/01/04 05:35:09;;;;;;;3.77;0.40;;;;;;;7.12;100.00;100410.94;5071959;28;20171;-73
2023/01/04 05:37:34;;;;;;;2.40;2.40;;;;;;;7.22;100.00;100420.06;5071241;28;20285;-73
2023/01/04 05:40:00;;;;;;;0.37;0.37;;;;;;;7.24;100.00;100413.25;5071788;28;20174;-73
2023/01/04 05:42:25;;;;;;;1.63;0.93;;;;;;;7.29;100.00;100418.63;5071746;28;20189;-73
2023/01/04 05:44:58;;;;;;;0.10;0.10;;;;;;;7.29;100.00;100396.09;5071676;28;20515;-74
2023/01/04 05:47:23;;;;;;;2.00;0.70;;;;;;;7.31;100.00;100383.81;5071628;28;20543;-74
2023/01/04 05:49:50;;;;;;;0.00;0.00;;;;;;;7.32;100.00;100382.72;5071730;28;20170;-73
2023/01/04 05:52:15;;;;;;;0.80;0.80;;;;;;;7.32;100.00;100373.75;5071630;28;20170;-73
2023/01/04 05:54:41;;;;;;;0.20;0.20;;;;;;;7.23;100.00;100343.69;5071329;28;20177;-74
2023/01/04 05:57:06;;;;;;;0.77;0.53;;;;;;;7.27;100.00;100328.44;5070217;28;20198;-73
2023/01/04 05:59:31;;;;;;;0.77;0.50;;;;;;;7.21;100.00;100326.88;5071412;28;20204;-73
2023/01/04 06:01:57;;;;;;;0.90;0.57;;;;;;;7.30;100.00;100321.59;5071553;28;20273;-73
2023/01/04 06:04:23;;;;;;;0.00;0.00;;;;;;;7.23;100.00;100334.72;5071128;28;20210;-74
2023/01/04 06:06:48;;;;;;;0.33;0.13;;;;;;;7.26;100.00;100337.69;5071778;28;20634;-73
2023/01/04 06:09:14;;;;;;;0.30;0.30;;;;;;;7.33;100.00;100323.75;5071382;28;20274;-73
2023/01/04 06:11:39;;;;;;;0.00;0.00;;;;;;;7.27;100.00;100322.19;5071342;28;20240;-73
2023/01/04 06:14:04;;;;;;;1.13;1.03;;;;;;;7.27;100.00;100312.13;5069497;28;20175;-73
2023/01/04 06:16:30;;;;;;;0.40;0.40;;;;;;;7.29;100.00;100296.34;5071271;28;20244;-73
2023/01/04 06:18:55;;;;;;;0.70;0.70;;;;;;;7.30;100.00;100310.75;5071186;28;20277;-74
2023/01/04 06:21:20;;;;;;;0.33;0.33;;;;;;;7.26;100.00;100304.28;5071087;28;20182;-73
2023/01/04 06:23:46;;;;;;;1.50;0.10;;;;;;;7.28;100.00;100300.16;5070858;28;20174;-74
2023/01/04 06:26:12;;;;;;;1.30;0.50;;;;;;;7.31;100.00;100280.56;5069646;28;20595;-73
2023/01/04 06:28:37;;;;;;;0.30;0.27;;;;;;;7.31;100.00;100287.91;5070964;28;20182;-74
2023/01/04 06:31:06;;;;;;;0.30;0.30;;;;;;;7.31;100.00;100283.28;5069614;28;20394;-73
2023/01/04 06:33:32;;;;;;;1.20;1.10;;;;;;;7.40;100.00;100283.44;5070653;28;20200;-73
2023/01/04 06:35:58;;;;;;;0.30;0.30;;;;;;;7.44;100.00;100276.28;5070838;28;20170;-73
2023/01/04 06:38:23;;;;;;;0.07;0.07;;;;;;;7.42;100.00;100268.44;5071068;28;20166;-73
2023/01/04 06:40:49;;;;;;;0.77;0.67;;;;;;;7.41;100.00;100266.81;5070686;28;20182;-74
2023/01/04 06:43:14;;;;;;;0.57;0.57;;;;;;;7.48;100.00;100277.31;5070673;28;20189;-74
2023/01/04 06:45:40;;;;;;;0.50;0.50;;;;;;;7.49;100.00;100270.78;5070363;28;20757;-74
2023/01/04 06:48:06;;;;;;;1.60;1.00;;;;;;;7.57;100.00;100266.59;5070801;28;20185;-73
2023/01/04 06:50:31;;;;;;;0.40;0.10;;;;;;;7.62;100.00;100270.03;5070695;28;20162;-74
2023/01/04 06:52:56;;;;;;;0.30;0.30;;;;;;;7.58;100.00;100252.69;5070452;28;20186;-74
2023/01/04 06:55:21;;;;;;;0.20;0.20;;;;;;;7.67;100.00;100252.84;5070734;28;20198;-73
2023/01/04 06:57:47;;;;;;;8.93;0.87;;;;;;;7.71;100.00;100249.22;5070633;28;20350;-73
2023/01/04 07:00:13;;;;;;;0.00;0.00;;;;;;;7.75;100.00;100257.59;5070615;28;20232;-74
2023/01/04 07:02:38;;;;;;;0.40;0.40;;;;;;;7.75;100.00;100250.25;5070418;28;20224;-73
2023/01/04 07:05:04;;;;;;;1.20;1.10;;;;;;;7.78;100.00;100251.56;5070362;28;20214;-74
2023/01/04 07:07:29;;;;;;;1.50;0.70;;;;;;;7.81;100.00;100236.53;5070664;28;20179;-74
2023/01/04 07:09:54;;;;;;;0.90;0.23;;;;;;;7.79;100.00;100245.00;5070579;28;20589;-73
2023/01/04 07:12:20;;;;;;;0.90;0.63;;;;;;;7.83;100.00;100248.78;5070437;28;20174;-73
2023/01/04 07:14:45;;;;;;;0.70;0.30;;;;;;;7.83;100.00;100250.69;5070334;28;20174;-74
2023/01/04 07:17:11;;;;;;;0.60;0.53;;;;;;;7.88;100.00;100248.66;5070859;28;20209;-73
2023/01/04 07:19:36;;;;;;;1.03;0.60;;;;;;;7.96;100.00;100236.31;5070339;28;20171;-73
2023/01/04 07:22:02;;;;;;;0.40;0.40;;;;;;;7.99;100.00;100257.47;5070529;28;20223;-73
2023/01/04 07:24:27;;;;;;;0.20;0.20;;;;;;;8.03;100.00;100245.69;5070105;28;20202;-72
2023/01/04 07:26:52;;;;;;;0.63;0.53;;;;;;;8.08;100.00;100261.09;5070480;28;20171;-72
2023/01/04 07:29:18;;;;;;;1.30;1.20;;;;;;;8.07;100.00;100246.69;5070256;28;20175;-74
2023/01/04 07:31:46;;;;;;;1.00;0.57;;;;;;;8.12;100.00;100237.66;5070602;28;20178;-72
2023/01/04 07:34:13;;;;;;;0.40;0.40;;;;;;;8.15;100.00;100237.03;5070106;28;20187;-72
2023/01/04 07:36:39;;;;;;;0.40;0.40;;;;;;;8.16;100.00;100222.34;5070336;28;20185;-72
2023/01/04 07:39:05;;;;;;;1.53;0.37;;;;;;;8.18;100.00;100220.09;5070162;28;20735;-73
2023/01/04 07:41:30;;;;;;;2.20;0.63;;;;;;;8.16;100.00;100206.00;5069988;28;20174;-73
2023/01/04 07:43:55;;;;;;;0.63;0.63;;;;;;;8.20;100.00;100220.63;5069932;28;20641;-72
2023/01/04 07:46:21;;;;;;;0.23;0.23;;;;;;;8.22;100.00;100201.25;5070169;28;20171;-73
2023/01/04 07:48:46;;;;;;;4.27;1.33;;;;;;;8.24;100.00;100218.91;5070003;28;20681;-74
2023/01/04 07:51:11;;;;;;;0.27;0.27;;;;;;;8.24;100.00;100208.00;5070040;28;20179;-75
2023/01/04 07:53:37;;;;;;;1.33;1.23;;;;;;;8.26;100.00;100208.53;5070047;28;20187;-74
2023/01/04 07:56:02;;;;;;;1.50;1.13;;;;;;;8.30;100.00;100219.63;5070035;28;20539;-74
2023/01/04 07:58:31;;;;;;;0.70;0.60;;;;;;;8.31;100.00;100224.75;5070083;28;20311;-74
2023/01/04 08:01:08;;;;;;;0.00;0.00;;;;;;;8.29;100.00;100216.09;5072632;28;20186;-74
2023/01/04 08:03:33;;;;;;;0.20;0.20;;;;;;;8.31;100.00;100230.19;5073298;28;20691;-74
2023/01/04 08:06:06;;;;;;;1.03;1.03;;;;;;;8.32;100.00;100215.47;5073478;28;20293;-74
2023/01/04 08:08:32;;;;;;;0.33;0.33;;;;;;;8.38;100.00;100239.91;5073453;28;20202;-75
2023/01/04 08:11:06;;;;;;;0.30;0.30;;;;;;;8.40;100.00;100229.53;5073533;28;20209;-74
2023/01/04 08:13:31;;;;;;;0.40;0.40;;;;;;;8.45;100.00;100241.13;5073319;28;20174;-74
2023/01/04 08:15:57;;;;;;;0.50;0.50;;;;;;;8.49;100.00;100231.25;5073397;28;20193;-74
2023/01/04 08:18:22;;;;;;;0.30;0.30;;;;;;;8.46;100.00;100218.25;5073394;28;20228;-75
2023/01/04 08:20:48;;;;;;;0.70;0.70;;;;;;;8.50;100.00;100246.47;5073396;28;20175;-74
2023/01/04 08:23:13;;;;;;;0.60;0.60;;;;;;;8.55;100.00;100246.38;5073087;28;20193;-74
2023/01/04 08:25:38;;;;;;;0.43;0.23;;;;;;;8.60;100.00;100238.09;5073181;28;20310;-75
2023/01/04 08:28:04;;;;;;;0.30;0.30;;;;;;;8.58;100.00;100234.06;5073277;28;20174;-75
2023/01/04 08:30:29;;;;;;;0.83;0.83;;;;;;;8.55;100.00;100215.63;5073574;28;20174;-74
2023/01/04 08:32:54;;;;;;;0.60;0.60;;;;;;;8.50;100.00;100232.06;5071667;28;20764;-75
2023/01/04 08:35:20;;;;;;;0.83;0.60;;;;;;;8.47;100.00;100219.84;5073148;28;20182;-72
2023/01/04 08:37:45;;;;;;;0.73;0.67;;;;;;;8.51;100.00;100214.59;5072793;28;20265;-73
2023/01/04 08:40:11;;;;;;;0.50;0.50;;;;;;;8.55;100.00;100221.06;5072977;28;20178;-72
2023/01/04 08:42:37;;;;;;;0.23;0.17;;;;;;;8.57;100.00;100218.84;5072443;28;20518;-73
2023/01/04 08:45:02;;;;;;;0.27;0.27;;;;;;;8.44;100.00;100206.84;5071320;28;20225;-72
2023/01/04 08:47:29;;;;;;;0.50;0.50;;;;;;;8.35;100.00;100212.19;5072859;28;20661;-72
2023/01/04 08:49:54;;;;;;;0.37;0.37;;;;;;;8.33;100.00;100208.13;5072508;28;20659;-72
2023/01/04 08:52:20;;;;;;;0.30;0.20;;;;;;;8.34;100.00;100205.13;5072672;28;20254;-72
2023/01/04 08:54:46;;;;;;;0.60;0.60;;;;;;;8.41;100.00;100191.13;5072554;28;20198;-72
2023/01/04 08:57:11;;;;;;;1.13;0.60;;;;;;;8.45;100.00;100202.22;5071418;28;20252;-72
2023/01/04 08:59:36;;;;;;;0.10;0.10;;;;;;;8.46;100.00;100209.28;5072636;28;20300;-72
2023/01/04 09:02:01;;;;;;;0.73;0.70;;;;;;;8.50;100.00;100221.16;5072565;28;20178;-74
2023/01/04 09:04:27;;;;;;;0.20;0.20;;;;;;;8.49;100.00;100214.91;5072035;28;20291;-74
2023/01/04 09:06:52;;;;;;;0.50;0.50;;;;;;;8.45;100.00;100224.78;5072527;28;20181;-74
2023/01/04 09:09:17;;;;;;;2.03;0.53;;;;;;;8.41;100.00;100212.09;5072561;28;20183;-75
2023/01/04 09:11:43;;;;;;;0.80;0.40;;;;;;;8.30;100.00;100206.81;5071067;28;20309;-74
2023/01/04 09:14:09;;;;;;;0.00;0.00;;;;;;;8.23;100.00;100208.31;5072046;28;20190;-74
2023/01/04 09:16:36;;;;;;;1.13;0.60;;;;;;;8.14;100.00;100183.72;5072314;28;20220;-74
2023/01/04 09:19:01;;;;;;;0.50;0.50;;;;;;;8.08;100.00;100206.69;5072172;28;20202;-74
2023/01/04 09:21:27;;;;;;;0.53;0.50;;;;;;;8.05;100.00;100218.19;5072110;28;20208;-74
2023/01/04 09:23:52;;;;;;;0.30;0.30;;;;;;;7.99;100.00;100203.88;5071860;28;20174;-75
2023/01/04 09:26:21;;;;;;;0.10;0.10;;;;;;;7.96;100.00;100200.94;5072010;28;20484;-75
2023/01/04 09:28:47;;;;;;;0.10;0.10;;;;;;;7.96;100.00;100196.31;5072112;28;20171;-74
2023/01/04 09:31:18;;;;;;;0.20;0.20;;;;;;;8.00;100.00;100199.22;5071957;28;20656;-75
2023/01/04 09:33:44;;;;;;;0.80;0.57;;;;;;;8.04;100.00;100192.06;5071882;28;20166;-75
2023/01/04 09:36:12;;;;;;;0.43;0.43;;;;;;;8.03;100.00;100185.84;5071890;28;20181;-74
2023/01/04 09:38:38;;;;;;;0.63;0.63;;;;;;;8.10;100.00;100184.63;5071994;28;20265;-75
2023/01/04 09:41:12;;;;;;;0.00;0.00;;;;;;;8.16;100.00;100172.53;5070330;28;20285;-75
2023/01/04 09:43:57;;;;;;;0.97;0.67;;;;;;;8.21;100.00;100184.13;5070222;28;20174;-75
2023/01/04 09:46:27;;;;;;;0.70;0.57;;;;;;;8.28;100.00;100191.91;5071837;28;20174;-75
2023/01/04 09:49:16;;;;;;;0.20;0.20;;;;;;;8.31;100.00;100180.41;5071806;28;20166;-76
2023/01/04 09:51:53;;;;;;;12.33;0.50;;;;;;;8.37;100.00;100172.97;5056993;28;20187;-75
2023/01/04 09:54:21;;;;;;;0.57;0.50;;;;;;;8.42;100.00;100159.28;5071465;28;20174;-75
2023/01/04 09:56:54;;;;;;;1.57;0.80;;;;;;;8.52;100.00;100186.25;5071371;28;20232;-75
2023/01/04 09:59:28;;;;;;;0.73;0.70;;;;;;;8.59;100.00;100178.50;5071496;28;20177;-74
2023/01/04 10:01:58;;;;;;;0.10;0.10;;;;;;;8.64;100.00;100179.19;5071490;28;20174;-74
2023/01/04 10:04:49;;;;;;;0.97;0.67;;;;;;;8.67;100.00;100174.25;5070976;28;20205;-73
2023/01/04 10:07:22;;;;;;;0.20;0.03;;;;;;;8.70;100.00;100187.28;5071389;28;20363;-75
2023/01/04 10:09:47;;;;;;;1.13;1.03;;;;;;;8.73;100.00;100200.28;5071429;28;20159;-76
2023/01/04 10:12:21;;;;;;;0.70;0.60;;;;;;;8.78;100.00;100167.47;5070335;28;20175;-73
2023/01/04 10:14:52;;;;;;;0.87;0.57;;;;;;;8.80;100.00;100168.78;5071042;28;20625;-74
2023/01/04 10:17:33;;;;;;;0.87;0.57;;;;;;;8.81;100.00;100164.13;5070933;28;20265;-73
2023/01/04 10:20:17;;;;;;;0.20;0.20;;;;;;;8.86;100.00;100151.22;5071174;28;20178;-73
2023/01/04 10:23:04;;;;;;;1.20;0.97;;;;;;;8.90;100.00;100149.47;5070719;28;20240;-74
2023/01/04 10:25:54;;;;;;;0.60;0.60;;;;;;;8.98;100.00;100172.47;5071017;28;20324;-73
2023/01/04 10:28:22;;;;;;;0.20;0.20;;;;;;;8.97;100.00;100173.59;5071038;28;20189;-73
2023/01/04 10:30:47;;;;;;;0.17;0.17;;;;;;;9.00;100.00;100166.72;5071076;28;20174;-73
2023/01/04 10:33:30;;;;;;;0.30;0.30;;;;;;;9.01;100.00;100168.34;5070951;28;20182;-71
2023/01/04 10:35:56;;;;;;;0.43;0.43;;;;;;;8.93;100.00;100154.31;5071123;28;20194;-72
2023/01/04 10:38:27;;;;;;;0.20;0.20;;;;;;;8.88;100.00;100149.00;5070821;28;20174;-71
2023/01/04 10:40:54;;;;;;;0.43;0.33;;;;;;;8.82;100.00;100152.13;5070736;28;20260;-71
2023/01/04 10:43:33;;;;;;;5.50;0.83;;;;;;;8.77;100.00;100144.06;5070574;28;20379;-71
2023/01/04 10:45:58;;;;;;;1.13;1.03;;;;;;;8.73;100.00;100133.00;5070728;28;20210;-71
2023/01/04 10:48:34;;;;;;;0.00;0.00;;;;;;;8.71;100.00;100128.97;5070880;28;20269;-71
2023/01/04 10:51:01;;;;;;;2.20;0.40;;;;;;;8.69;100.00;100123.84;5069614;28;20652;-72
2023/01/04 10:53:26;;;;;;;0.37;0.37;;;;;;;8.65;100.00;100120.09;5070611;28;20170;-72
2023/01/04 10:55:59;;;;;;;0.40;0.40;;;;;;;8.63;100.00;100111.41;5069219;28;20181;-73
2023/01/04 10:58:54;;;;;;;2.43;0.30;;;;;;;8.57;100.00;100102.56;5071127;28;20167;-73
2023/01/04 11:01:28;;;;;;;0.97;0.93;;;;;;;8.57;100.00;100105.28;5071265;28;20195;-73
2023/01/04 11:04:28;;;;;;;0.00;0.00;;;;;;;8.58;100.00;100106.09;5073257;28;20190;-73
2023/01/04 11:07:20;;;;;;;0.23;0.20;;;;;;;8.61;100.00;100098.13;5071852;28;20174;-73
2023/01/04 11:10:14;;;;;;;0.30;0.30;;;;;;;8.63;100.00;100098.59;5070018;28;20186;-73
2023/01/04 11:12:39;;;;;;;0.37;0.37;;;;;;;8.69;100.00;100107.50;5070603;28;20174;-72
2023/01/04 11:15:05;;;;;;;0.40;0.40;;;;;;;8.74;100.00;100101.13;5069516;28;20236;-73
2023/01/04 11:17:31;;;;;;;0.13;0.03;;;;;;;8.74;100.00;100093.75;5070734;28;20208;-72
2023/01/04 11:19:57;;;;;;;0.10;0.10;;;;;;;8.80;100.00;100099.88;5070546;28;20186;-72
2023/01/04 11:22:36;;;;;;;0.20;0.20;;;;;;;8.82;100.00;100087.53;5070516;28;20166;-72
2023/01/04 11:25:11;;;;;;;0.53;0.40;;;;;;;8.83;100.00;100083.75;5070345;28;20198;-72
2023/01/04 11:27:45;;;;;;;0.27;0.27;;;;;;;8.83;100.00;100089.19;5070400;28;20180;-72
2023/01/04 11:30:21;;;;;;;0.50;0.50;;;;;;;8.80;100.00;100084.34;5070480;28;20167;-73
2023/01/04 11:32:54;;;;;;;0.17;0.10;;;;;;;8.79;100.00;100088.16;5070295;28;20185;-72
2023/01/04 11:35:43;;;;;;;0.57;0.37;;;;;;;8.79;100.00;100082.72;5072085;28;20198;-72
2023/01/04 11:38:20;;;;;;;0.53;0.37;;;;;;;8.79;100.00;100068.31;5074255;28;20178;-72
2023/01/04 11:40:57;;;;;;;0.60;0.40;;;;;;;8.77;100.00;100073.25;5073853;28;20259;-73
2023/01/04 11:43:24;;;;;;;0.83;0.40;;;;;;;8.82;100.00;100060.31;5073798;28;20178;-72
2023/01/04 11:45:58;;;;;;;0.77;0.30;;;;;;;8.84;100.00;100055.38;5073806;28;20214;-72
2023/01/04 11:48:39;;;;;;;0.60;0.60;;;;;;;8.87;100.00;100057.47;5074065;28;20176;-73
2023/01/04 11:51:14;;;;;;;0.27;0.20;;;;;;;8.89;100.00;100049.00;5074020;28;20182;-72
2023/01/04 11:53:39;;;;;;;0.23;0.23;;;;;;;8.89;100.00;100051.72;5073753;28;20181;-73
2023/01/04 11:56:15;;;;;;;0.10;0.10;;;;;;;8.88;100.00;100048.19;5073676;28;20186;-72
2023/01/04 11:58:42;;;;;;;0.20;0.20;;;;;;;8.88;100.00;100052.84;5073820;28;20287;-73
2023/01/04 12:01:23;;;;;;;0.77;0.60;;;;;;;8.90;100.00;100051.41;5073735;28;20175;-73
2023/01/04 12:03:50;;;;;;;0.63;0.63;;;;;;;8.93;100.00;100031.72;5073457;28;20186;-73
2023/01/04 12:06:48;;;;;;;0.30;0.30;;;;;;;8.95;100.00;100040.38;5073417;28;20206;-73
2023/01/04 12:09:15;;;;;;;0.27;0.23;;;;;;;8.97;100.00;100039.25;5073649;28;20190;-73
2023/01/04 12:12:00;;;;;;;0.10;0.10;;;;;;;9.02;100.00;100033.69;5073697;28;20216;-72
2023/01/04 12:14:36;;;;;;;0.30;0.30;;;;;;;9.02;100.00;100030.97;5073359;28;20536;-73
2023/01/04 12:17:24;;;;;;;0.00;0.00;;;;;;;9.01;100.00;100027.44;5073557;28;20636;-73
2023/01/04 12:19:53;;;;;;;0.50;0.50;;;;;;;9.00;100.00;100020.41;5073481;28;20179;-73
2023/01/04 12:22:38;;;;;;;0.10;0.10;;;;;;;9.03;100.00;100018.97;5073291;28;20178;-72
2023/01/04 12:25:08;;;;;;;0.10;0.10;;;;;;;9.05;100.00;100014.81;5073147;28;20863;-73
2023/01/04 12:27:35;;;;;;;0.10;0.10;;;;;;;9.04;100.00;100010.47;5073190;28;20545;-72